Time;durP1;ratioP1;P1;durP2;ratioP2;P2;SDS_P1;SDS_P2;PMS_P1;PMS_P2;Temp;Humidity;BMP_temperature;BMP_pressure;BME280_temperature;BME280_humidity;BME280_pressure;Samples;Min_cycle;Max_cycle;Signal;HPM_P1;HPM_P2
2023/12/29 00:02:13;;;;;;;3.30;2.15;;;;;;;;;;4973351;28;20047;-57
2023/12/29 00:04:39;;;;;;;2.97;2.00;;;;;;;;;;4970351;28;20047;-57
2023/12/29 00:07:05;;;;;;;3.72;2.30;;;;;;;;;;4967157;28;20055;-60
2023/12/29 00:09:38;;;;;;;3.30;2.50;;;;;;;;;;4967988;28;20046;-63
2023/12/29 00:12:04;;;;;;;2.75;1.92;;;;;;;;;;4980030;28;20058;-59
2023/12/29 00:14:30;;;;;;;2.65;2.00;;;;;;;;;;4977144;28;20066;-61
2023/12/29 00:16:57;;;;;;;2.88;2.10;;;;;;;;;;4968653;28;20069;-59
2023/12/29 00:19:23;;;;;;;5.47;2.30;;;;;;;;;;4988988;28;20505;-58
2023/12/29 00:21:49;;;;;;;4.18;2.63;;;;;;;;;;4967646;28;20038;-59
2023/12/29 00:24:16;;;;;;;3.28;2.20;;;;;;;;;;4968806;28;20042;-59
2023/12/29 00:26:42;;;;;;;3.40;2.33;;;;;;;;;;4969802;28;20429;-59
2023/12/29 00:29:09;;;;;;;3.25;2.10;;;;;;;;;;4972886;28;20058;-59
2023/12/29 00:31:35;;;;;;;2.97;2.28;;;;;;;;;;4973408;28;20054;-60
2023/12/29 00:34:01;;;;;;;5.50;2.22;;;;;;;;;;4992495;28;20118;-59
2023/12/29 00:36:27;;;;;;;3.63;2.50;;;;;;;;;;4976405;28;20070;-58
2023/12/29 00:38:53;;;;;;;2.78;2.10;;;;;;;;;;4978580;28;20449;-58
2023/12/29 00:41:19;;;;;;;5.30;2.60;;;;;;;;;;4966473;28;20074;-58
2023/12/29 00:43:45;;;;;;;3.03;2.25;;;;;;;;;;4964777;28;20494;-55
2023/12/29 00:46:15;;;;;;;3.90;2.38;;;;;;;;;;4979609;28;20053;-57
2023/12/29 00:48:41;;;;;;;3.63;2.45;;;;;;;;;;4990815;28;20735;-58
2023/12/29 00:51:08;;;;;;;3.67;2.70;;;;;;;;;;4982501;28;20041;-59
2023/12/29 00:53:37;;;;;;;3.70;2.47;;;;;;;;;;4970564;28;20042;-57
2023/12/29 00:56:03;;;;;;;4.25;2.50;;;;;;;;;;4988443;28;20042;-59
2023/12/29 00:58:29;;;;;;;3.80;2.50;;;;;;;;;;4973420;28;20051;-58
2023/12/29 01:00:55;;;;;;;5.82;2.85;;;;;;;;;;4988815;28;20402;-58
2023/12/29 01:03:22;;;;;;;4.85;2.70;;;;;;;;;;4968546;28;20560;-59
2023/12/29 01:05:48;;;;;;;6.13;3.25;;;;;;;;;;4976480;28;20039;-57
2023/12/29 01:08:14;;;;;;;4.55;2.78;;;;;;;;;;4973619;28;20043;-61
2023/12/29 01:10:40;;;;;;;3.88;2.78;;;;;;;;;;4969290;28;20053;-60
2023/12/29 01:13:07;;;;;;;4.35;2.40;;;;;;;;;;4966182;28;20057;-58
2023/12/29 01:15:33;;;;;;;5.07;3.45;;;;;;;;;;4971863;28;20056;-54
2023/12/29 01:17:59;;;;;;;3.80;2.67;;;;;;;;;;4981308;28;20520;-57
2023/12/29 01:20:25;;;;;;;6.85;3.50;;;;;;;;;;4982152;28;20035;-57
2023/12/29 01:22:51;;;;;;;5.57;3.60;;;;;;;;;;4968945;28;20053;-59
2023/12/29 01:25:17;;;;;;;4.55;2.58;;;;;;;;;;4967860;28;20043;-58
2023/12/29 01:27:43;;;;;;;3.67;2.90;;;;;;;;;;4973961;28;20505;-56
2023/12/29 01:30:10;;;;;;;3.83;2.58;;;;;;;;;;4972329;28;20058;-57
2023/12/29 01:32:37;;;;;;;5.13;2.78;;;;;;;;;;4967768;28;20409;-57
2023/12/29 01:35:04;;;;;;;5.53;3.08;;;;;;;;;;4974532;28;20043;-57
2023/12/29 01:37:30;;;;;;;4.18;3.05;;;;;;;;;;4996594;28;20051;-58
2023/12/29 01:39:57;;;;;;;5.18;2.60;;;;;;;;;;4964271;28;20045;-57
2023/12/29 01:42:23;;;;;;;3.75;2.70;;;;;;;;;;4981177;28;20049;-59
2023/12/29 01:44:54;;;;;;;4.55;3.10;;;;;;;;;;4979896;28;20058;-58
2023/12/29 01:47:21;;;;;;;4.70;3.00;;;;;;;;;;4969167;28;20382;-58
2023/12/29 01:49:49;;;;;;;6.25;3.53;;;;;;;;;;4987093;28;20062;-57
2023/12/29 01:52:20;;;;;;;4.68;2.85;;;;;;;;;;4989910;28;20035;-60
2023/12/29 01:54:49;;;;;;;5.10;3.33;;;;;;;;;;4968087;28;20043;-58
2023/12/29 01:57:15;;;;;;;4.18;2.65;;;;;;;;;;4961851;28;20038;-56
2023/12/29 01:59:45;;;;;;;4.82;2.70;;;;;;;;;;4975542;28;20930;-58
2023/12/29 02:02:11;;;;;;;7.28;3.13;;;;;;;;;;4969057;28;20534;-58
2023/12/29 02:04:40;;;;;;;6.00;3.10;;;;;;;;;;4971387;28;20430;-58
2023/12/29 02:07:06;;;;;;;4.35;2.88;;;;;;;;;;4986655;28;20036;-58
2023/12/29 02:09:34;;;;;;;4.20;2.85;;;;;;;;;;4979679;28;20042;-58
2023/12/29 02:12:00;;;;;;;6.28;3.33;;;;;;;;;;4979701;28;20043;-59
2023/12/29 02:14:26;;;;;;;4.47;3.00;;;;;;;;;;4965634;28;20118;-56
2023/12/29 02:16:58;;;;;;;5.05;3.10;;;;;;;;;;4982538;28;20054;-58
2023/12/29 02:19:34;;;;;;;5.05;3.13;;;;;;;;;;4967583;28;20046;-60
2023/12/29 02:22:01;;;;;;;4.43;3.03;;;;;;;;;;4987010;28;20410;-60
2023/12/29 02:24:27;;;;;;;5.07;3.15;;;;;;;;;;4968238;28;20058;-58
2023/12/29 02:27:00;;;;;;;5.30;3.20;;;;;;;;;;4967914;28;20635;-56
2023/12/29 02:29:29;;;;;;;6.60;3.08;;;;;;;;;;4966283;28;20031;-57
2023/12/29 02:31:59;;;;;;;4.95;3.03;;;;;;;;;;4975475;28;20058;-57
2023/12/29 02:34:27;;;;;;;5.90;3.22;;;;;;;;;;4963258;28;20054;-60
2023/12/29 02:36:55;;;;;;;4.45;2.90;;;;;;;;;;4971210;28;20050;-57
2023/12/29 02:39:21;;;;;;;4.68;2.83;;;;;;;;;;4972693;28;20398;-60
2023/12/29 02:41:47;;;;;;;5.35;3.20;;;;;;;;;;4978357;28;20072;-57
2023/12/29 02:44:13;;;;;;;3.83;2.70;;;;;;;;;;4976764;28;20045;-59
2023/12/29 02:46:39;;;;;;;3.60;2.50;;;;;;;;;;4988502;28;20040;-59
2023/12/29 02:49:11;;;;;;;3.90;2.88;;;;;;;;;;4988334;28;20034;-60
2023/12/29 02:51:37;;;;;;;3.42;2.53;;;;;;;;;;4972800;28;20498;-58
2023/12/29 02:54:05;;;;;;;4.10;2.50;;;;;;;;;;4964270;28;20066;-56
2023/12/29 02:56:32;;;;;;;3.67;2.40;;;;;;;;;;4968940;28;20047;-57
2023/12/29 02:58:58;;;;;;;3.97;2.30;;;;;;;;;;4968597;28;20494;-56
2023/12/29 03:01:24;;;;;;;3.72;2.50;;;;;;;;;;4968474;28;20042;-58
2023/12/29 03:03:50;;;;;;;3.03;2.30;;;;;;;;;;4967355;28;20034;-61
2023/12/29 03:06:16;;;;;;;2.72;2.15;;;;;;;;;;4966919;28;20051;-58
2023/12/29 03:08:42;;;;;;;3.13;2.60;;;;;;;;;;4964509;28;20054;-59
2023/12/29 03:11:08;;;;;;;3.13;2.33;;;;;;;;;;4979917;28;20039;-60
2023/12/29 03:13:35;;;;;;;3.30;2.30;;;;;;;;;;4968416;28;20057;-59
2023/12/29 03:16:01;;;;;;;3.35;2.00;;;;;;;;;;4982606;28;20048;-59
2023/12/29 03:18:27;;;;;;;3.97;2.05;;;;;;;;;;4985125;28;20054;-56
2023/12/29 03:20:53;;;;;;;2.10;1.73;;;;;;;;;;4984935;28;20066;-59
2023/12/29 03:23:20;;;;;;;3.08;1.85;;;;;;;;;;4965785;28;20047;-60
2023/12/29 03:25:46;;;;;;;2.08;1.55;;;;;;;;;;4966236;28;20043;-60
2023/12/29 03:28:12;;;;;;;2.33;1.75;;;;;;;;;;4970232;28;20057;-61
2023/12/29 03:30:38;;;;;;;2.90;2.00;;;;;;;;;;4969919;28;20054;-58
2023/12/29 03:33:04;;;;;;;2.42;1.42;;;;;;;;;;4971924;28;20054;-60
2023/12/29 03:35:30;;;;;;;1.92;1.50;;;;;;;;;;4969087;28;20055;-61
2023/12/29 03:37:56;;;;;;;2.42;1.60;;;;;;;;;;4967310;28;20421;-60
2023/12/29 03:40:22;;;;;;;2.38;1.52;;;;;;;;;;4962445;28;20529;-60
2023/12/29 03:42:48;;;;;;;2.67;1.75;;;;;;;;;;4966961;28;20039;-60
2023/12/29 03:45:14;;;;;;;3.13;1.73;;;;;;;;;;4997886;28;20042;-60
2023/12/29 03:47:41;;;;;;;4.28;1.60;;;;;;;;;;4988283;28;20033;-57
2023/12/29 03:50:08;;;;;;;4.75;1.60;;;;;;;;;;4967525;28;20050;-60
2023/12/29 03:52:34;;;;;;;2.15;1.55;;;;;;;;;;4988793;28;20047;-59
2023/12/29 03:55:00;;;;;;;1.50;1.40;;;;;;;;;;4967898;28;20039;-59
2023/12/29 03:57:26;;;;;;;2.55;1.80;;;;;;;;;;4977048;28;20050;-59
2023/12/29 03:59:52;;;;;;;2.58;1.83;;;;;;;;;;4976147;28;20058;-59
2023/12/29 04:02:18;;;;;;;2.30;1.80;;;;;;;;;;4971029;28;20536;-57
2023/12/29 04:04:44;;;;;;;2.50;1.92;;;;;;;;;;4976417;28;20051;-59
2023/12/29 04:07:10;;;;;;;3.47;1.80;;;;;;;;;;4974535;28;20047;-61
2023/12/29 04:09:36;;;;;;;2.15;1.60;;;;;;;;;;4970787;28;20031;-60
2023/12/29 04:12:03;;;;;;;3.47;1.70;;;;;;;;;;4982085;28;20053;-58
2023/12/29 04:14:29;;;;;;;2.38;1.63;;;;;;;;;;4969570;28;20054;-59
2023/12/29 04:16:55;;;;;;;2.35;1.60;;;;;;;;;;4987372;28;20507;-60
2023/12/29 04:19:21;;;;;;;2.42;1.80;;;;;;;;;;4969066;28;20050;-58
2023/12/29 04:21:47;;;;;;;1.60;1.48;;;;;;;;;;4969431;28;20038;-58
2023/12/29 04:24:14;;;;;;;2.83;1.85;;;;;;;;;;4970530;28;20039;-58
2023/12/29 04:26:40;;;;;;;1.92;1.60;;;;;;;;;;4968784;28;20038;-59
2023/12/29 04:29:06;;;;;;;2.70;1.98;;;;;;;;;;4980302;28;20046;-60
2023/12/29 04:31:32;;;;;;;2.28;1.88;;;;;;;;;;4975197;28;20541;-58
2023/12/29 04:33:58;;;;;;;2.92;1.98;;;;;;;;;;4974406;28;20121;-57
2023/12/29 04:36:26;;;;;;;2.97;2.13;;;;;;;;;;4990756;28;20060;-58
2023/12/29 04:38:52;;;;;;;3.35;1.90;;;;;;;;;;4968753;28;20537;-59
2023/12/29 04:41:20;;;;;;;3.10;1.80;;;;;;;;;;4985266;28;20042;-57
2023/12/29 04:43:46;;;;;;;2.80;2.08;;;;;;;;;;4970433;28;20517;-58
2023/12/29 04:46:12;;;;;;;2.92;2.05;;;;;;;;;;4970311;28;20494;-58
2023/12/29 04:48:38;;;;;;;3.75;2.40;;;;;;;;;;4970368;28;20046;-57
2023/12/29 04:51:04;;;;;;;4.05;2.00;;;;;;;;;;4971777;28;20494;-58
2023/12/29 04:53:30;;;;;;;3.13;2.28;;;;;;;;;;4970384;28;20038;-57
2023/12/29 04:55:57;;;;;;;2.40;1.92;;;;;;;;;;4970536;28;20042;-59
2023/12/29 04:58:23;;;;;;;3.53;2.30;;;;;;;;;;4975748;28;20045;-58
2023/12/29 05:00:49;;;;;;;3.22;2.25;;;;;;;;;;4966010;28;20055;-61
2023/12/29 05:03:15;;;;;;;2.60;2.15;;;;;;;;;;4966427;28;20054;-57
2023/12/29 05:05:41;;;;;;;2.30;2.00;;;;;;;;;;4976860;28;20761;-61
2023/12/29 05:08:07;;;;;;;3.40;2.13;;;;;;;;;;4983511;28;20060;-59
2023/12/29 05:10:35;;;;;;;2.50;1.90;;;;;;;;;;4969868;28;20039;-61
2023/12/29 05:13:01;;;;;;;4.90;2.08;;;;;;;;;;4968006;28;20048;-56
2023/12/29 05:15:27;;;;;;;4.15;2.45;;;;;;;;;;4967264;28;20057;-60
2023/12/29 05:17:53;;;;;;;2.55;1.95;;;;;;;;;;4988551;28;20052;-57
2023/12/29 05:20:19;;;;;;;4.15;2.10;;;;;;;;;;4968833;28;20041;-58
2023/12/29 05:22:45;;;;;;;3.13;2.28;;;;;;;;;;4972634;28;20050;-57
2023/12/29 05:25:11;;;;;;;2.67;1.98;;;;;;;;;;4968316;28;20050;-58
2023/12/29 05:27:37;;;;;;;2.80;2.03;;;;;;;;;;4973351;28;20418;-61
2023/12/29 05:30:04;;;;;;;3.20;2.00;;;;;;;;;;4975494;28;20417;-60
2023/12/29 05:32:30;;;;;;;2.80;2.25;;;;;;;;;;4979379;28;20051;-58
2023/12/29 05:34:56;;;;;;;3.28;1.83;;;;;;;;;;4978932;28;20049;-59
2023/12/29 05:37:22;;;;;;;3.72;2.25;;;;;;;;;;4980777;28;20049;-60
2023/12/29 05:39:48;;;;;;;3.17;2.00;;;;;;;;;;4969707;28;20047;-57
2023/12/29 05:42:14;;;;;;;2.25;1.90;;;;;;;;;;4984074;28;20050;-59
2023/12/29 05:44:41;;;;;;;4.18;2.60;;;;;;;;;;4987543;28;20050;-57
2023/12/29 05:47:07;;;;;;;2.45;1.85;;;;;;;;;;4997836;28;20035;-58
2023/12/29 05:49:37;;;;;;;2.17;1.90;;;;;;;;;;4977811;28;20046;-58
2023/12/29 05:52:07;;;;;;;3.65;2.45;;;;;;;;;;4968809;28;20110;-58
2023/12/29 05:54:34;;;;;;;2.25;1.83;;;;;;;;;;4970030;28;20046;-58
2023/12/29 05:57:00;;;;;;;2.72;2.05;;;;;;;;;;4964353;28;20064;-60
2023/12/29 05:59:26;;;;;;;4.97;2.05;;;;;;;;;;4967250;28;20055;-56
2023/12/29 06:01:52;;;;;;;2.70;1.90;;;;;;;;;;4977300;28;20516;-57
2023/12/29 06:04:19;;;;;;;2.33;1.75;;;;;;;;;;4967716;28;20035;-57
2023/12/29 06:06:45;;;;;;;2.97;1.73;;;;;;;;;;4979561;28;20028;-56
2023/12/29 06:09:12;;;;;;;3.28;2.13;;;;;;;;;;4981963;28;20038;-55
2023/12/29 06:11:38;;;;;;;3.65;2.20;;;;;;;;;;4968438;28;20494;-58
2023/12/29 06:14:04;;;;;;;1.83;1.60;;;;;;;;;;4985456;28;20514;-59
2023/12/29 06:16:30;;;;;;;2.47;1.63;;;;;;;;;;4989167;28;20042;-59
2023/12/29 06:18:56;;;;;;;2.42;1.70;;;;;;;;;;4982097;28;20502;-57
2023/12/29 06:21:22;;;;;;;5.38;2.20;;;;;;;;;;4969112;28;20057;-62
2023/12/29 06:23:49;;;;;;;5.68;1.70;;;;;;;;;;4968332;28;20051;-58
2023/12/29 06:26:18;;;;;;;2.17;1.60;;;;;;;;;;4970333;28;20402;-56
2023/12/29 06:28:46;;;;;;;2.47;1.67;;;;;;;;;;4976357;28;20053;-57
2023/12/29 06:31:12;;;;;;;3.03;1.58;;;;;;;;;;4968328;28;20429;-57
2023/12/29 06:33:42;;;;;;;3.35;1.80;;;;;;;;;;4968240;28;20039;-59
2023/12/29 06:36:09;;;;;;;7.63;3.17;;;;;;;;;;4964700;28;20399;-57
2023/12/29 06:38:36;;;;;;;16.45;5.88;;;;;;;;;;4983960;28;20032;-61
2023/12/29 06:41:06;;;;;;;2.92;1.95;;;;;;;;;;4970413;28;20051;-57
2023/12/29 06:43:33;;;;;;;2.08;1.60;;;;;;;;;;4966763;28;20046;-58
2023/12/29 06:45:59;;;;;;;2.85;2.00;;;;;;;;;;4965187;28;20035;-59
2023/12/29 06:48:25;;;;;;;3.03;2.15;;;;;;;;;;4990354;28;20048;-55
2023/12/29 06:50:52;;;;;;;2.40;1.90;;;;;;;;;;4972981;28;20031;-55
2023/12/29 06:53:18;;;;;;;1.95;1.48;;;;;;;;;;4968525;28;20047;-58
2023/12/29 06:55:44;;;;;;;2.25;1.50;;;;;;;;;;4967047;28;20050;-55
2023/12/29 06:58:10;;;;;;;2.92;1.92;;;;;;;;;;4964407;28;20073;-58
2023/12/29 07:00:36;;;;;;;2.78;1.85;;;;;;;;;;4974630;28;20039;-56
2023/12/29 07:03:03;;;;;;;2.83;1.92;;;;;;;;;;4966375;28;20042;-60
2023/12/29 07:05:29;;;;;;;3.03;2.20;;;;;;;;;;4967826;28;20027;-59
2023/12/29 07:07:55;;;;;;;2.95;2.20;;;;;;;;;;4981474;28;20054;-57
2023/12/29 07:10:21;;;;;;;2.95;2.00;;;;;;;;;;4981263;28;20046;-59
2023/12/29 07:12:47;;;;;;;7.95;5.10;;;;;;;;;;4985310;28;20034;-57
2023/12/29 07:15:16;;;;;;;3.80;2.40;;;;;;;;;;4986609;28;20514;-53
2023/12/29 07:17:42;;;;;;;3.20;2.37;;;;;;;;;;4949606;28;20044;-56
2023/12/29 07:20:09;;;;;;;4.60;3.15;;;;;;;;;;4973822;28;20294;-57
2023/12/29 07:22:35;;;;;;;6.10;3.78;;;;;;;;;;4967519;28;20034;-58
2023/12/29 07:25:01;;;;;;;2.63;1.80;;;;;;;;;;4968934;28;20047;-57
2023/12/29 07:27:27;;;;;;;3.17;2.00;;;;;;;;;;4970056;28;20483;-56
2023/12/29 07:29:53;;;;;;;4.30;2.30;;;;;;;;;;4971612;28;20053;-58
2023/12/29 07:32:19;;;;;;;4.07;2.05;;;;;;;;;;4960200;28;20030;-56
2023/12/29 07:34:46;;;;;;;3.78;2.20;;;;;;;;;;4968701;28;20039;-58
2023/12/29 07:37:12;;;;;;;2.72;2.00;;;;;;;;;;4985216;28;20050;-56
2023/12/29 07:39:38;;;;;;;1.88;1.67;;;;;;;;;;4985584;28;20408;-56
2023/12/29 07:42:04;;;;;;;3.75;1.70;;;;;;;;;;4973650;28;20054;-56
2023/12/29 07:44:31;;;;;;;6.45;2.10;;;;;;;;;;4987806;28;20046;-58
2023/12/29 07:46:57;;;;;;;3.47;1.83;;;;;;;;;;4995344;28;20039;-55
2023/12/29 07:49:23;;;;;;;2.92;1.70;;;;;;;;;;4987255;28;20051;-56
2023/12/29 07:51:50;;;;;;;2.85;1.50;;;;;;;;;;4976267;28;20042;-58
2023/12/29 07:54:16;;;;;;;2.60;1.83;;;;;;;;;;4973251;28;20050;-56
2023/12/29 07:56:42;;;;;;;2.95;2.00;;;;;;;;;;4971536;28;20062;-57
2023/12/29 07:59:08;;;;;;;2.80;2.00;;;;;;;;;;4963711;28;20430;-58
2023/12/29 08:01:36;;;;;;;3.40;2.20;;;;;;;;;;4960239;28;20115;-55
2023/12/29 08:04:03;;;;;;;2.88;1.80;;;;;;;;;;4982476;28;20414;-56
2023/12/29 08:06:29;;;;;;;3.22;1.90;;;;;;;;;;4970285;28;20042;-56
2023/12/29 08:08:55;;;;;;;2.28;1.65;;;;;;;;;;4968216;28;20236;-56
2023/12/29 08:11:21;;;;;;;2.75;1.80;;;;;;;;;;4971444;28;20043;-58
2023/12/29 08:13:49;;;;;;;3.78;1.70;;;;;;;;;;4969907;28;20050;-59
2023/12/29 08:16:18;;;;;;;2.50;1.90;;;;;;;;;;4988902;28;20046;-56
2023/12/29 08:18:47;;;;;;;3.83;1.70;;;;;;;;;;4971438;28;20043;-55
2023/12/29 08:21:19;;;;;;;3.10;1.75;;;;;;;;;;4973724;28;20639;-57
2023/12/29 08:23:49;;;;;;;6.00;2.78;;;;;;;;;;4973683;28;20035;-59
2023/12/29 08:26:15;;;;;;;3.55;1.45;;;;;;;;;;4976097;28;20043;-56
2023/12/29 08:28:41;;;;;;;1.92;1.25;;;;;;;;;;4972431;28;20051;-56
2023/12/29 08:31:08;;;;;;;2.55;1.92;;;;;;;;;;4980594;28;20057;-59
2023/12/29 08:33:34;;;;;;;3.53;2.78;;;;;;;;;;4967730;28;20058;-56
2023/12/29 08:36:03;;;;;;;4.80;2.25;;;;;;;;;;4965711;28;20027;-56
2023/12/29 08:38:31;;;;;;;3.78;2.40;;;;;;;;;;4988711;28;20036;-54
2023/12/29 08:40:57;;;;;;;9.20;4.25;;;;;;;;;;4988864;28;20042;-53
2023/12/29 08:43:24;;;;;;;7.47;4.38;;;;;;;;;;4966810;28;20050;-56
2023/12/29 08:45:50;;;;;;;10.68;2.40;;;;;;;;;;4949965;28;20031;-56
2023/12/29 08:48:16;;;;;;;9.13;4.95;;;;;;;;;;4988921;28;20050;-60
2023/12/29 08:50:42;;;;;;;4.00;2.17;;;;;;;;;;4971717;28;20034;-57
2023/12/29 08:53:09;;;;;;;2.95;1.90;;;;;;;;;;4940737;28;20486;-55
2023/12/29 08:55:35;;;;;;;2.65;1.60;;;;;;;;;;4971369;28;20054;-56
2023/12/29 08:58:01;;;;;;;10.57;3.60;;;;;;;;;;4982283;28;20033;-56
2023/12/29 09:00:30;;;;;;;3.50;1.67;;;;;;;;;;4976513;28;20486;-53
2023/12/29 09:02:57;;;;;;;3.30;2.10;;;;;;;;;;4962773;28;20073;-57
2023/12/29 09:05:23;;;;;;;2.47;1.60;;;;;;;;;;4956669;28;20391;-60
2023/12/29 09:07:49;;;;;;;2.83;1.67;;;;;;;;;;4968754;28;20037;-55
2023/12/29 09:10:15;;;;;;;2.60;1.70;;;;;;;;;;4986770;28;20042;-53
2023/12/29 09:12:41;;;;;;;1.80;1.40;;;;;;;;;;4972706;28;20046;-55
2023/12/29 09:15:08;;;;;;;2.47;1.80;;;;;;;;;;4992914;28;20040;-57
2023/12/29 09:17:34;;;;;;;3.65;1.85;;;;;;;;;;4968327;28;20667;-56
2023/12/29 09:20:01;;;;;;;6.63;1.90;;;;;;;;;;4968540;28;20069;-61
2023/12/29 09:22:27;;;;;;;2.78;1.90;;;;;;;;;;4973100;28;20035;-55
2023/12/29 09:24:54;;;;;;;1.98;1.48;;;;;;;;;;4972339;28;20414;-57
2023/12/29 09:27:21;;;;;;;1.63;1.10;;;;;;;;;;4981369;28;20045;-58
2023/12/29 09:29:47;;;;;;;3.00;1.77;;;;;;;;;;4975363;28;20046;-56
2023/12/29 09:32:13;;;;;;;1.70;1.50;;;;;;;;;;4977316;28;20052;-54
2023/12/29 09:34:40;;;;;;;1.80;1.38;;;;;;;;;;4966254;28;20034;-54
2023/12/29 09:37:06;;;;;;;2.38;1.30;;;;;;;;;;4972756;28;20051;-56
2023/12/29 09:39:32;;;;;;;2.03;1.00;;;;;;;;;;4963225;28;20038;-55
2023/12/29 09:42:02;;;;;;;1.35;1.20;;;;;;;;;;4993381;28;20440;-57
2023/12/29 09:44:28;;;;;;;2.50;1.50;;;;;;;;;;4982191;28;20391;-57
2023/12/29 09:46:55;;;;;;;2.35;1.10;;;;;;;;;;4963029;28;20619;-57
2023/12/29 09:49:21;;;;;;;2.22;1.10;;;;;;;;;;4970961;28;20492;-55
2023/12/29 09:51:48;;;;;;;5.88;3.25;;;;;;;;;;4986579;28;20042;-57
2023/12/29 09:54:15;;;;;;;3.78;1.73;;;;;;;;;;4982565;28;20056;-59
2023/12/29 09:56:42;;;;;;;1.77;1.33;;;;;;;;;;4990379;28;20045;-56
2023/12/29 09:59:11;;;;;;;6.00;1.70;;;;;;;;;;4988004;28;20062;-57
2023/12/29 10:01:41;;;;;;;1.35;1.10;;;;;;;;;;4971728;28;20046;-56
2023/12/29 10:04:07;;;;;;;2.28;1.63;;;;;;;;;;4974337;28;20042;-58
2023/12/29 10:06:38;;;;;;;3.63;1.92;;;;;;;;;;4994838;28;20028;-57
2023/12/29 10:09:07;;;;;;;4.13;1.90;;;;;;;;;;4980243;28;20053;-57
2023/12/29 10:11:37;;;;;;;1.90;1.40;;;;;;;;;;4961094;28;20046;-58
2023/12/29 10:14:15;;;;;;;1.50;1.30;;;;;;;;;;4965697;28;20306;-57
2023/12/29 10:16:45;;;;;;;3.15;1.50;;;;;;;;;;4978838;28;20442;-57
2023/12/29 10:19:29;;;;;;;5.47;2.60;;;;;;;;;;5007946;28;20383;-60
2023/12/29 10:22:03;;;;;;;6.18;2.75;;;;;;;;;;4978261;28;20047;-56
2023/12/29 10:24:30;;;;;;;8.43;3.10;;;;;;;;;;4968600;28;20426;-58
2023/12/29 10:26:56;;;;;;;3.70;2.15;;;;;;;;;;4977235;28;20495;-60
2023/12/29 10:29:23;;;;;;;1.88;1.33;;;;;;;;;;5003304;28;20059;-60
2023/12/29 10:31:50;;;;;;;1.88;1.35;;;;;;;;;;4985615;28;20409;-60
2023/12/29 10:34:29;;;;;;;4.82;2.10;;;;;;;;;;4981715;28;20037;-57
2023/12/29 10:36:56;;;;;;;2.45;1.33;;;;;;;;;;4964476;28;20051;-57
2023/12/29 10:39:23;;;;;;;2.85;1.73;;;;;;;;;;4969032;28;20050;-55
2023/12/29 10:41:50;;;;;;;1.35;1.20;;;;;;;;;;4972871;28;20051;-58
2023/12/29 10:44:17;;;;;;;2.08;1.10;;;;;;;;;;4988143;28;20160;-55
2023/12/29 10:46:43;;;;;;;4.22;1.80;;;;;;;;;;4968867;28;20047;-59
2023/12/29 10:49:12;;;;;;;2.63;1.75;;;;;;;;;;5011272;28;20036;-57
2023/12/29 10:51:39;;;;;;;1.23;1.13;;;;;;;;;;4970907;28;20047;-58
2023/12/29 10:54:05;;;;;;;1.75;1.17;;;;;;;;;;4961339;28;20050;-57
2023/12/29 10:56:32;;;;;;;2.40;1.50;;;;;;;;;;4988117;28;20037;-59
2023/12/29 10:59:03;;;;;;;2.47;1.30;;;;;;;;;;4974476;28;20046;-57
2023/12/29 11:01:35;;;;;;;2.80;1.60;;;;;;;;;;4960130;28;20517;-58
2023/12/29 11:04:06;;;;;;;2.13;1.08;;;;;;;;;;4960435;28;20517;-58
2023/12/29 11:06:44;;;;;;;2.15;1.25;;;;;;;;;;4967543;28;20035;-57
2023/12/29 11:09:11;;;;;;;1.95;1.15;;;;;;;;;;4964755;28;20035;-57
2023/12/29 11:11:38;;;;;;;1.48;1.00;;;;;;;;;;4967029;28;20515;-58
2023/12/29 11:14:05;;;;;;;1.80;1.30;;;;;;;;;;4968517;28;20031;-57
2023/12/29 11:16:34;;;;;;;1.40;1.08;;;;;;;;;;4972198;28;20042;-57
2023/12/29 11:19:03;;;;;;;2.28;1.10;;;;;;;;;;4972506;28;20027;-57
2023/12/29 11:21:31;;;;;;;1.45;1.10;;;;;;;;;;4974716;28;20049;-57
2023/12/29 11:23:58;;;;;;;1.95;1.40;;;;;;;;;;4965308;28;20073;-54
2023/12/29 11:26:25;;;;;;;1.20;1.10;;;;;;;;;;4974975;28;20077;-54
2023/12/29 11:28:54;;;;;;;1.90;1.40;;;;;;;;;;4963532;28;20038;-55
2023/12/29 11:31:20;;;;;;;2.00;1.40;;;;;;;;;;4965878;28;20043;-58
2023/12/29 11:33:54;;;;;;;2.05;1.23;;;;;;;;;;4968713;28;20524;-57
2023/12/29 11:36:25;;;;;;;6.18;2.22;;;;;;;;;;4966917;28;20042;-55
2023/12/29 11:38:57;;;;;;;3.45;1.45;;;;;;;;;;4963624;28;20050;-55
2023/12/29 11:41:32;;;;;;;3.53;2.30;;;;;;;;;;4984832;28;20032;-60
2023/12/29 11:43:59;;;;;;;2.35;1.50;;;;;;;;;;4993769;28;20034;-58
2023/12/29 11:46:43;;;;;;;3.70;2.10;;;;;;;;;;4992145;28;20053;-58
2023/12/29 11:49:10;;;;;;;2.30;1.40;;;;;;;;;;5003838;28;20061;-59
2023/12/29 11:51:40;;;;;;;2.15;1.50;;;;;;;;;;5002464;28;20053;-58
2023/12/29 11:54:09;;;;;;;1.83;1.15;;;;;;;;;;5010714;28;20038;-59
2023/12/29 11:56:36;;;;;;;1.33;1.20;;;;;;;;;;5013419;28;20039;-57
2023/12/29 11:59:23;;;;;;;1.90;1.70;;;;;;;;;;4994151;28;20031;-56
2023/12/29 12:01:57;;;;;;;1.65;1.38;;;;;;;;;;4981747;28;20073;-57
2023/12/29 12:04:40;;;;;;;1.85;1.40;;;;;;;;;;4969677;28;20047;-58
2023/12/29 12:07:36;;;;;;;2.22;1.30;;;;;;;;;;4964880;28;20030;-57
2023/12/29 12:10:21;;;;;;;5.55;1.50;;;;;;;;;;4963361;28;20043;-59
2023/12/29 12:12:51;;;;;;;2.72;1.33;;;;;;;;;;4991436;28;20397;-54
2023/12/29 12:15:27;;;;;;;1.77;1.38;;;;;;;;;;4974486;28;20030;-55
2023/12/29 12:17:53;;;;;;;2.40;1.20;;;;;;;;;;4968251;28;20043;-57
2023/12/29 12:20:20;;;;;;;3.47;1.50;;;;;;;;;;4966334;28;20031;-57
2023/12/29 12:23:02;;;;;;;1.92;1.30;;;;;;;;;;4972305;28;20037;-55
2023/12/29 12:25:30;;;;;;;1.25;1.13;;;;;;;;;;4963774;28;20043;-58
2023/12/29 12:27:57;;;;;;;2.10;1.20;;;;;;;;;;5007575;28;20426;-58
2023/12/29 12:30:23;;;;;;;1.60;1.10;;;;;;;;;;4995432;28;20371;-56
2023/12/29 12:33:02;;;;;;;2.25;1.75;;;;;;;;;;4996721;28;20051;-57
2023/12/29 12:35:29;;;;;;;3.35;1.40;;;;;;;;;;4976696;28;20062;-57
2023/12/29 12:38:16;;;;;;;2.38;1.20;;;;;;;;;;4971054;28;20065;-56
2023/12/29 12:40:42;;;;;;;2.33;1.20;;;;;;;;;;4975929;28;20054;-56
2023/12/29 12:43:13;;;;;;;1.92;1.40;;;;;;;;;;4970770;28;20046;-57
2023/12/29 12:45:47;;;;;;;2.05;1.20;;;;;;;;;;4972198;28;20455;-57
2023/12/29 12:48:19;;;;;;;3.22;1.10;;;;;;;;;;4976865;28;20486;-56
2023/12/29 12:50:46;;;;;;;1.83;1.40;;;;;;;;;;4967266;28;20035;-57
2023/12/29 12:53:19;;;;;;;3.03;1.70;;;;;;;;;;4968887;28;20510;-58
2023/12/29 12:55:52;;;;;;;3.28;1.65;;;;;;;;;;4972936;28;20498;-54
2023/12/29 12:58:20;;;;;;;1.10;1.00;;;;;;;;;;4958794;28;20576;-58
2023/12/29 13:00:47;;;;;;;2.58;1.10;;;;;;;;;;4982133;28;20030;-56
2023/12/29 13:03:15;;;;;;;2.05;1.00;;;;;;;;;;4965451;28;20035;-57
2023/12/29 13:05:41;;;;;;;2.70;1.27;;;;;;;;;;4988382;28;20054;-61
2023/12/29 13:08:08;;;;;;;1.80;1.10;;;;;;;;;;4995256;28;20430;-56
2023/12/29 13:10:39;;;;;;;3.42;1.50;;;;;;;;;;4980156;28;20029;-55
2023/12/29 13:13:06;;;;;;;2.08;1.10;;;;;;;;;;4986125;28;20046;-55
2023/12/29 13:15:32;;;;;;;3.88;1.20;;;;;;;;;;4966447;28;20641;-58
2023/12/29 13:17:58;;;;;;;2.00;1.30;;;;;;;;;;4970402;28;20410;-59
2023/12/29 13:20:24;;;;;;;3.40;1.55;;;;;;;;;;4977085;28;20041;-56
2023/12/29 13:22:50;;;;;;;1.63;1.20;;;;;;;;;;4978906;28;20039;-58
2023/12/29 13:25:35;;;;;;;1.58;1.13;;;;;;;;;;4964407;28;20039;-59
2023/12/29 13:28:03;;;;;;;1.67;1.10;;;;;;;;;;4972457;28;20034;-60
2023/12/29 13:30:29;;;;;;;2.05;1.30;;;;;;;;;;4978694;28;20056;-60
2023/12/29 13:32:56;;;;;;;2.03;1.33;;;;;;;;;;4968580;28;20054;-57
2023/12/29 13:35:31;;;;;;;2.17;1.30;;;;;;;;;;4968860;28;20038;-58
2023/12/29 13:38:11;;;;;;;2.67;1.40;;;;;;;;;;4989438;28;20050;-57
2023/12/29 13:40:43;;;;;;;3.00;1.17;;;;;;;;;;4990446;28;20038;-58
2023/12/29 13:43:12;;;;;;;2.33;1.38;;;;;;;;;;4992663;28;20044;-60
2023/12/29 13:45:41;;;;;;;2.15;1.30;;;;;;;;;;4968058;28;20042;-58
2023/12/29 13:48:09;;;;;;;1.75;1.13;;;;;;;;;;4967000;28;20051;-59
2023/12/29 13:50:35;;;;;;;1.88;1.35;;;;;;;;;;4969833;28;20037;-61
2023/12/29 13:53:02;;;;;;;3.38;1.63;;;;;;;;;;4974318;28;20052;-60
2023/12/29 13:55:28;;;;;;;3.15;1.60;;;;;;;;;;4980392;28;20053;-58
2023/12/29 13:57:54;;;;;;;1.75;1.40;;;;;;;;;;4968526;28;20059;-59
2023/12/29 14:00:26;;;;;;;2.13;1.60;;;;;;;;;;4980165;28;20042;-59
2023/12/29 14:02:58;;;;;;;2.55;1.58;;;;;;;;;;4980475;28;20062;-58
2023/12/29 14:05:31;;;;;;;3.42;1.80;;;;;;;;;;4968450;28;20039;-59
2023/12/29 14:08:16;;;;;;;3.50;1.50;;;;;;;;;;4989713;28;20046;-59
2023/12/29 14:10:42;;;;;;;1.70;1.40;;;;;;;;;;4970193;28;20060;-59
2023/12/29 14:13:11;;;;;;;1.73;1.23;;;;;;;;;;4972318;28;20053;-57
2023/12/29 14:15:42;;;;;;;1.67;1.38;;;;;;;;;;4970327;28;20046;-60
2023/12/29 14:18:32;;;;;;;2.83;1.75;;;;;;;;;;4974739;28;20050;-59
2023/12/29 14:20:59;;;;;;;3.20;1.52;;;;;;;;;;4963769;28;20049;-58
2023/12/29 14:23:25;;;;;;;1.83;1.30;;;;;;;;;;4968044;28;20045;-57
2023/12/29 14:25:51;;;;;;;2.08;1.58;;;;;;;;;;4968880;28;20039;-56
2023/12/29 14:28:20;;;;;;;1.70;1.50;;;;;;;;;;4991072;28;20030;-58
2023/12/29 14:30:47;;;;;;;2.30;1.10;;;;;;;;;;4971459;28;20054;-56
2023/12/29 14:33:13;;;;;;;2.17;1.50;;;;;;;;;;4969754;28;20050;-59
2023/12/29 14:35:39;;;;;;;1.73;1.30;;;;;;;;;;4965541;28;20046;-59
2023/12/29 14:38:05;;;;;;;3.45;2.17;;;;;;;;;;4966557;28;20046;-59
2023/12/29 14:40:34;;;;;;;1.60;1.45;;;;;;;;;;4989159;28;20055;-59
2023/12/29 14:43:02;;;;;;;4.25;2.00;;;;;;;;;;4967654;28;20046;-60
2023/12/29 14:45:29;;;;;;;1.90;1.30;;;;;;;;;;4970111;28;20048;-58
2023/12/29 14:47:58;;;;;;;2.45;1.70;;;;;;;;;;4977771;28;20033;-59